Time;durP1;ratioP1;P1;durP2;ratioP2;P2;SDS_P1;SDS_P2;PMS_P1;PMS_P2;Temp;Humidity;BMP_temperature;BMP_pressure;BME280_temperature;BME280_humidity;BME280_pressure;Samples;Min_cycle;Max_cycle;Signal;HPM_P1;HPM_P2
2021/05/21 00:01:49;;;;;;;2.67;0.60;;;;;;;15.49;44.95;100819.94;5012185;28;20053;-77
2021/05/21 00:04:53;;;;;;;4.28;0.75;;;;;;;15.44;44.88;100819.50;5013721;28;20401;-77
2021/05/21 00:07:58;;;;;;;3.08;0.80;;;;;;;15.41;44.83;100822.50;5013157;28;20053;-78
2021/05/21 00:11:06;;;;;;;2.15;0.70;;;;;;;15.38;45.13;100828.25;5013802;28;20045;-77
2021/05/21 00:14:10;;;;;;;2.50;0.80;;;;;;;15.31;45.41;100821.72;5013623;28;20045;-78
2021/05/21 00:17:15;;;;;;;2.65;0.80;;;;;;;15.24;45.90;100821.50;5013210;28;20405;-78
2021/05/21 00:20:20;;;;;;;6.15;0.88;;;;;;;15.21;46.61;100815.56;5013343;28;20481;-77
2021/05/21 00:23:24;;;;;;;2.17;0.82;;;;;;;15.08;46.45;100810.53;5013357;28;20052;-78
2021/05/21 00:26:28;;;;;;;2.97;0.93;;;;;;;14.98;45.77;100805.19;5024451;28;20045;-78
2021/05/21 00:29:33;;;;;;;3.03;0.63;;;;;;;14.96;45.38;100812.56;5013427;28;20049;-78
2021/05/21 00:32:37;;;;;;;3.13;0.70;;;;;;;14.93;44.92;100803.94;5023862;28;20045;-77
2021/05/21 00:35:41;;;;;;;4.05;0.85;;;;;;;14.91;44.79;100804.06;5023973;28;20057;-78
2021/05/21 00:38:46;;;;;;;3.97;0.75;;;;;;;14.91;44.61;100804.06;5013585;28;20045;-78
2021/05/21 00:41:50;;;;;;;3.63;0.80;;;;;;;14.94;44.05;100811.03;5023929;28;20049;-77
2021/05/21 00:44:58;;;;;;;2.58;0.95;;;;;;;15.01;43.02;100804.00;5014258;28;20389;-77
2021/05/21 00:48:03;;;;;;;3.70;0.70;;;;;;;15.03;42.86;100806.56;5016939;28;20053;-77
2021/05/21 00:51:08;;;;;;;1.40;0.57;;;;;;;15.16;42.85;100817.88;5027189;28;20049;-78
2021/05/21 00:54:16;;;;;;;2.92;0.75;;;;;;;15.26;42.25;100811.38;5017410;28;20374;-77
2021/05/21 00:57:22;;;;;;;3.15;0.68;;;;;;;15.28;42.08;100808.53;5017278;28;20480;-74
2021/05/21 01:00:26;;;;;;;3.83;0.60;;;;;;;15.27;42.13;100815.78;5016998;28;20500;-77
2021/05/21 01:03:30;;;;;;;3.33;0.70;;;;;;;15.25;42.31;100803.44;5017267;28;20054;-77
2021/05/21 01:06:34;;;;;;;1.98;0.73;;;;;;;15.30;42.26;100798.41;5027936;28;20048;-77
2021/05/21 01:09:39;;;;;;;2.65;0.70;;;;;;;15.39;42.33;100792.91;5036692;28;20381;-77
2021/05/21 01:12:44;;;;;;;3.00;0.90;;;;;;;15.44;42.88;100792.44;5036030;28;20048;-76
2021/05/21 01:15:48;;;;;;;2.13;0.68;;;;;;;15.51;43.32;100799.81;5035733;28;20064;-77
2021/05/21 01:18:52;;;;;;;2.33;0.60;;;;;;;15.48;43.78;100788.47;5036536;28;20048;-78
2021/05/21 01:21:57;;;;;;;2.25;0.75;;;;;;;15.41;42.95;100785.50;5036634;28;20500;-77
2021/05/21 01:25:01;;;;;;;2.60;0.88;;;;;;;15.35;43.01;100785.28;5036443;28;20064;-77
2021/05/21 01:28:06;;;;;;;3.13;0.80;;;;;;;15.27;42.44;100780.63;5036589;28;20060;-78
2021/05/21 01:31:11;;;;;;;2.25;0.63;;;;;;;15.16;41.66;100778.13;5036342;28;20052;-77
2021/05/21 01:34:15;;;;;;;3.45;0.70;;;;;;;15.15;41.65;100778.31;5036303;28;20583;-77
2021/05/21 01:37:21;;;;;;;6.18;0.77;;;;;;;15.13;41.22;100767.66;5035429;28;20068;-78
2021/05/21 01:40:31;;;;;;;1.30;0.60;;;;;;;15.09;40.77;100762.69;5036457;28;20103;-77
2021/05/21 01:43:36;;;;;;;2.35;1.02;;;;;;;15.13;40.38;100764.09;5035582;28;20048;-77
2021/05/21 01:46:40;;;;;;;2.03;0.63;;;;;;;15.14;40.37;100761.22;5035929;28;20176;-78
2021/05/21 01:49:45;;;;;;;1.50;0.40;;;;;;;15.22;39.83;100752.34;5036024;28;20082;-77
2021/05/21 01:52:49;;;;;;;1.95;0.60;;;;;;;15.25;39.12;100755.59;5035123;28;20060;-77
2021/05/21 01:55:53;;;;;;;1.58;0.50;;;;;;;15.30;39.13;100750.56;5035510;28;20060;-77
2021/05/21 01:58:58;;;;;;;3.50;0.50;;;;;;;15.34;38.48;100749.25;5035503;28;20377;-77
2021/05/21 02:02:03;;;;;;;1.17;0.50;;;;;;;15.44;38.81;100747.31;5036063;28;20060;-77
2021/05/21 02:05:09;;;;;;;1.85;0.60;;;;;;;15.48;38.51;100746.00;5035899;28;20044;-77
2021/05/21 02:08:13;;;;;;;1.50;0.60;;;;;;;15.44;38.51;100747.31;5035956;28;20492;-77
2021/05/21 02:11:18;;;;;;;1.83;0.68;;;;;;;15.41;38.74;100742.22;5035673;28;20068;-79
2021/05/21 02:14:23;;;;;;;3.25;0.60;;;;;;;15.41;38.23;100733.22;5035600;28;20048;-77
2021/05/21 02:17:28;;;;;;;2.95;0.70;;;;;;;15.40;38.63;100740.53;5035049;28;20503;-77
2021/05/21 02:20:33;;;;;;;1.55;0.50;;;;;;;15.42;38.64;100738.50;5034932;28;20052;-76
2021/05/21 02:23:39;;;;;;;5.65;0.60;;;;;;;15.50;38.02;100743.16;5033765;28;20049;-77
2021/05/21 02:26:43;;;;;;;2.60;0.55;;;;;;;15.47;38.14;100736.22;5034618;28;20048;-78
2021/05/21 02:29:47;;;;;;;1.23;0.43;;;;;;;15.49;37.65;100741.47;5034483;28;20048;-78
2021/05/21 02:32:52;;;;;;;1.95;0.57;;;;;;;15.57;37.88;100746.94;5034549;28;20040;-78
2021/05/21 02:35:56;;;;;;;3.47;0.70;;;;;;;15.61;38.50;100751.03;5034882;28;20052;-77
2021/05/21 02:39:01;;;;;;;1.92;0.70;;;;;;;15.69;39.22;100747.53;5034806;28;20392;-77
2021/05/21 02:42:05;;;;;;;1.88;0.60;;;;;;;15.68;39.50;100752.09;5034745;28;20488;-78
2021/05/21 02:45:10;;;;;;;2.85;0.45;;;;;;;15.60;40.61;100747.47;5034025;28;20499;-77
2021/05/21 02:48:15;;;;;;;2.72;0.60;;;;;;;15.55;40.21;100738.97;5033787;28;20385;-78
2021/05/21 02:51:19;;;;;;;2.03;0.60;;;;;;;15.51;39.81;100742.16;5034690;28;20117;-78
2021/05/21 02:54:24;;;;;;;1.73;0.60;;;;;;;15.46;40.22;100744.47;5033857;28;20052;-74
2021/05/21 02:57:28;;;;;;;1.98;0.60;;;;;;;15.48;40.50;100739.78;5033737;28;20064;-76
2021/05/21 03:00:32;;;;;;;2.28;0.80;;;;;;;15.50;41.18;100735.06;5034438;28;20048;-75
2021/05/21 03:03:37;;;;;;;2.78;0.70;;;;;;;15.46;43.18;100733.66;5034349;28;20060;-75
2021/05/21 03:06:41;;;;;;;1.60;0.52;;;;;;;15.35;42.23;100732.03;5034324;28;20072;-75
2021/05/21 03:09:45;;;;;;;1.60;0.57;;;;;;;15.32;42.46;100731.47;5034318;28;20049;-77
2021/05/21 03:12:50;;;;;;;2.78;0.55;;;;;;;15.37;42.52;100735.41;5033491;28;20061;-77
2021/05/21 03:15:55;;;;;;;2.38;0.60;;;;;;;15.27;42.39;100739.22;5034266;28;20389;-75
2021/05/21 03:19:00;;;;;;;3.42;0.73;;;;;;;15.17;41.35;100733.88;5033340;28;20492;-75
2021/05/21 03:22:05;;;;;;;2.08;0.70;;;;;;;15.10;41.28;100737.34;5034193;28;20053;-76
2021/05/21 03:25:11;;;;;;;3.08;0.60;;;;;;;15.15;42.18;100753.97;5034215;28;20056;-76
2021/05/21 03:28:15;;;;;;;1.70;0.50;;;;;;;15.19;42.86;100755.34;5033551;28;20045;-75
2021/05/21 03:31:20;;;;;;;1.80;0.70;;;;;;;15.22;43.72;100752.34;5033396;28;20064;-76
2021/05/21 03:34:24;;;;;;;2.38;0.60;;;;;;;15.23;43.82;100751.34;5033450;28;20389;-75
2021/05/21 03:37:28;;;;;;;2.78;0.63;;;;;;;15.14;41.98;100741.44;5034015;28;20048;-74
2021/05/21 03:40:34;;;;;;;2.53;0.70;;;;;;;15.06;41.60;100742.22;5033117;28;20053;-76
2021/05/21 03:43:39;;;;;;;3.33;0.70;;;;;;;15.09;41.16;100741.06;5032587;28;20049;-76
2021/05/21 03:46:44;;;;;;;5.28;0.60;;;;;;;15.13;42.51;100751.44;5032545;28;20060;-76
2021/05/21 03:49:48;;;;;;;1.67;0.65;;;;;;;15.10;44.50;100753.56;5033485;28;20052;-76
2021/05/21 03:52:52;;;;;;;1.58;0.63;;;;;;;15.14;45.07;100747.72;5033844;28;20044;-73
2021/05/21 03:55:56;;;;;;;3.45;0.75;;;;;;;15.11;44.37;100736.38;5033288;28;20048;-74
2021/05/21 03:59:01;;;;;;;1.42;0.52;;;;;;;15.08;44.42;100744.78;5033960;28;20049;-75
2021/05/21 04:02:05;;;;;;;7.03;0.85;;;;;;;15.07;45.04;100751.19;5033746;28;20048;-75
2021/05/21 04:05:09;;;;;;;3.85;0.88;;;;;;;15.15;43.86;100754.81;5033736;28;20541;-74
2021/05/21 04:08:13;;;;;;;4.03;1.10;;;;;;;15.09;43.52;100750.03;5033563;28;20086;-74
2021/05/21 04:11:18;;;;;;;1.50;0.60;;;;;;;14.89;42.28;100754.72;5033789;28;20041;-75
2021/05/21 04:14:22;;;;;;;5.13;1.10;;;;;;;14.74;42.99;100747.31;5034275;28;20060;-74
2021/05/21 04:17:26;;;;;;;2.80;1.02;;;;;;;14.66;42.49;100750.75;5030524;28;20140;-75
2021/05/21 04:20:31;;;;;;;2.90;0.95;;;;;;;14.52;43.44;100753.94;5022671;28;20060;-74
2021/05/21 04:23:41;;;;;;;3.05;1.10;;;;;;;14.43;43.77;100760.25;5036243;28;20056;-75
2021/05/21 04:26:46;;;;;;;3.47;1.30;;;;;;;14.44;44.27;100764.66;5037314;28;20048;-74
2021/05/21 04:29:50;;;;;;;2.30;1.10;;;;;;;14.54;44.80;100773.53;5036373;28;20052;-74
2021/05/21 04:32:55;;;;;;;4.35;1.05;;;;;;;14.59;44.87;100767.72;5037256;28;20057;-75
2021/05/21 04:35:59;;;;;;;3.50;1.35;;;;;;;14.66;45.06;100766.97;5037137;28;20061;-73
2021/05/21 04:39:07;;;;;;;4.07;1.20;;;;;;;15.04;45.26;100759.59;5024263;28;20053;-74
2021/05/21 04:42:11;;;;;;;2.65;1.02;;;;;;;15.39;43.90;100756.91;5019015;28;20492;-75
2021/05/21 04:45:17;;;;;;;4.35;1.20;;;;;;;15.92;43.10;100746.88;5037006;28;20396;-77
2021/05/21 04:48:21;;;;;;;2.95;1.02;;;;;;;16.65;41.65;100758.97;5035559;28;20052;-75
2021/05/21 04:51:26;;;;;;;3.85;0.90;;;;;;;17.28;40.71;100759.28;5036391;28;20068;-73
2021/05/21 04:54:31;;;;;;;3.17;1.13;;;;;;;17.88;39.63;100748.94;5036798;28;20056;-73
2021/05/21 04:57:35;;;;;;;5.05;0.93;;;;;;;18.38;37.96;100751.38;5035986;28;20057;-74
2021/05/21 05:00:40;;;;;;;19.00;15.18;;;;;;;18.87;37.38;100760.19;5036622;28;20117;-73
2021/05/21 05:03:44;;;;;;;37.25;28.98;;;;;;;19.16;36.95;100754.09;5036284;28;20504;-75
2021/05/21 05:06:49;;;;;;;3.92;2.05;;;;;;;18.52;37.07;100750.66;5036430;28;20401;-77
2021/05/21 05:09:54;;;;;;;3.45;1.30;;;;;;;17.64;38.92;100754.41;5036472;28;20052;-77
2021/05/21 05:12:58;;;;;;;3.72;1.40;;;;;;;17.49;40.04;100750.66;5036690;28;20057;-77
2021/05/21 05:16:02;;;;;;;3.58;1.73;;;;;;;17.34;39.85;100758.59;5036336;28;20048;-78
2021/05/21 05:19:08;;;;;;;2.28;1.10;;;;;;;17.46;40.05;100753.69;5036038;28;20057;-74
2021/05/21 05:22:13;;;;;;;3.72;1.20;;;;;;;17.57;40.10;100752.53;5036236;28;20045;-76
2021/05/21 05:25:17;;;;;;;3.03;1.48;;;;;;;17.75;39.64;100747.78;5036214;28;20068;-77
2021/05/21 05:28:22;;;;;;;5.47;1.50;;;;;;;17.64;40.70;100742.69;5036084;28;20064;-78
2021/05/21 05:31:26;;;;;;;4.15;1.50;;;;;;;17.62;40.43;100752.88;5035287;28;20044;-75
2021/05/21 05:34:30;;;;;;;4.35;1.50;;;;;;;17.35;41.88;100743.19;5032782;28;20044;-75
2021/05/21 05:37:35;;;;;;;5.10;1.50;;;;;;;17.36;42.46;100743.00;5033395;28;20519;-76
2021/05/21 05:40:39;;;;;;;5.63;1.67;;;;;;;17.37;42.02;100758.28;5033655;28;20052;-75
2021/05/21 05:43:44;;;;;;;4.93;1.65;;;;;;;17.50;42.81;100753.19;5032999;28;20045;-80
2021/05/21 05:46:49;;;;;;;4.53;2.03;;;;;;;17.47;43.17;100747.25;5016034;28;20048;-77
2021/05/21 05:49:53;;;;;;;4.28;1.60;;;;;;;17.51;44.30;100743.16;5015798;28;20049;-77
2021/05/21 05:53:00;;;;;;;6.75;1.60;;;;;;;17.37;42.90;100739.28;5014900;28;20069;-76
2021/05/21 05:56:05;;;;;;;3.63;1.42;;;;;;;17.14;42.39;100740.94;5026473;28;20053;-78
2021/05/21 05:59:09;;;;;;;7.45;1.73;;;;;;;17.12;43.41;100756.53;5029163;28;20064;-76
2021/05/21 06:02:14;;;;;;;3.28;1.30;;;;;;;17.01;44.19;100766.88;5035555;28;20060;-75
2021/05/21 06:05:18;;;;;;;9.13;1.40;;;;;;;16.95;47.96;100767.53;5028103;28;20056;-76
2021/05/21 06:08:23;;;;;;;8.52;1.65;;;;;;;16.92;49.00;100764.13;5015277;28;20053;-73
2021/05/21 06:11:27;;;;;;;7.30;2.10;;;;;;;16.82;50.18;100768.00;5024044;28;20400;-75
2021/05/21 06:14:31;;;;;;;4.18;1.55;;;;;;;16.78;49.54;100778.31;5033137;28;20056;-77
2021/05/21 06:17:36;;;;;;;6.20;1.52;;;;;;;16.92;49.08;100779.53;5015571;28;20492;-75
2021/05/21 06:20:40;;;;;;;7.32;1.70;;;;;;;17.02;49.28;100769.41;5022364;28;20412;-74
2021/05/21 06:23:45;;;;;;;5.03;1.95;;;;;;;17.21;48.54;100777.22;5033859;28;20459;-74
2021/05/21 06:30:14;;;;;;;14.57;2.73;;;;;;;17.54;48.05;100781.72;5034843;28;20057;-76
2021/05/21 06:33:18;;;;;;;6.20;2.30;;;;;;;17.59;47.77;100774.94;5038567;28;20292;-75
2021/05/21 06:36:23;;;;;;;12.10;2.00;;;;;;;17.31;47.92;100780.66;5026141;28;20041;-74
2021/05/21 06:39:28;;;;;;;9.45;2.28;;;;;;;17.47;47.79;100779.81;5014744;28;20389;-75
2021/05/21 06:42:32;;;;;;;9.68;1.70;;;;;;;17.84;43.72;100769.34;5014169;28;20053;-73
2021/05/21 06:45:37;;;;;;;5.93;2.47;;;;;;;18.44;43.89;100769.69;5014916;28;20053;-75
2021/05/21 06:48:42;;;;;;;10.20;1.85;;;;;;;18.82;43.18;100778.94;5025248;28;20503;-76
2021/05/21 06:51:49;;;;;;;7.55;1.88;;;;;;;19.42;42.44;100769.06;5023235;28;20049;-73
2021/05/21 06:54:55;;;;;;;7.63;1.60;;;;;;;19.91;40.95;100769.50;5030037;28;20511;-75
2021/05/21 06:57:59;;;;;;;7.65;1.58;;;;;;;20.29;39.61;100769.50;5032877;28;20052;-74
2021/05/21 07:01:04;;;;;;;5.63;1.23;;;;;;;20.21;37.94;100769.53;5033333;28;20049;-75
2021/05/21 07:04:08;;;;;;;10.40;1.30;;;;;;;20.16;36.84;100763.81;5034467;28;20041;-74
2021/05/21 07:07:12;;;;;;;7.47;1.30;;;;;;;20.43;37.19;100755.88;5034416;28;20045;-77
2021/05/21 07:10:17;;;;;;;6.20;1.40;;;;;;;20.66;36.60;100753.84;5023368;28;20049;-76
2021/05/21 07:13:22;;;;;;;3.40;1.10;;;;;;;20.64;36.00;100755.94;5030619;28;20192;-75
2021/05/21 07:16:26;;;;;;;5.93;1.30;;;;;;;20.75;38.63;100760.06;5032104;28;20507;-74
2021/05/21 07:19:30;;;;;;;4.35;1.27;;;;;;;21.15;39.29;100753.22;5029332;28;20053;-77
2021/05/21 07:22:35;;;;;;;3.75;1.45;;;;;;;21.70;33.88;100756.09;5032011;28;20068;-77
2021/05/21 07:25:40;;;;;;;3.40;0.95;;;;;;;22.32;30.87;100742.50;5033073;28;20500;-77
2021/05/21 07:28:44;;;;;;;2.90;1.08;;;;;;;22.80;29.70;100746.16;5032432;28;20064;-77
2021/05/21 07:31:49;;;;;;;3.15;0.95;;;;;;;23.67;28.50;100754.41;5032906;28;20511;-77
2021/05/21 07:34:53;;;;;;;3.20;1.35;;;;;;;24.58;27.70;100750.75;5027099;28;20052;-75
2021/05/21 07:37:58;;;;;;;3.60;1.52;;;;;;;24.66;27.30;100741.44;5031958;28;20053;-73
2021/05/21 07:41:03;;;;;;;5.10;1.35;;;;;;;24.75;27.82;100732.72;5032828;28;20060;-73
2021/05/21 07:44:08;;;;;;;5.30;1.23;;;;;;;24.42;27.79;100724.59;5032695;28;20408;-76
2021/05/21 07:47:14;;;;;;;4.95;1.50;;;;;;;23.77;29.92;100709.06;5032965;28;20056;-77
2021/05/21 07:50:19;;;;;;;8.65;1.70;;;;;;;23.95;30.78;100709.25;5032529;28;20060;-76
2021/05/21 07:53:24;;;;;;;6.00;2.10;;;;;;;24.79;29.73;100711.22;5033119;28;20068;-76
2021/05/21 07:56:30;;;;;;;8.52;2.55;;;;;;;25.97;28.33;100725.00;5036607;28;20064;-77
2021/05/21 07:59:34;;;;;;;12.90;2.10;;;;;;;26.71;28.02;100726.78;5035823;28;20116;-77
2021/05/21 08:02:40;;;;;;;7.18;1.60;;;;;;;27.83;26.05;100720.50;5034565;28;20053;-77
2021/05/21 08:05:45;;;;;;;5.10;1.75;;;;;;;28.92;24.16;100715.03;5036517;28;20057;-78
2021/05/21 08:08:50;;;;;;;7.63;1.60;;;;;;;29.77;23.89;100712.22;5035868;28;20052;-77
2021/05/21 08:11:54;;;;;;;7.25;1.52;;;;;;;27.83;24.38;100712.22;5036278;28;20054;-77
2021/05/21 08:14:59;;;;;;;3.83;1.60;;;;;;;28.39;24.62;100707.78;5036624;28;20429;-77
2021/05/21 08:18:04;;;;;;;9.00;1.50;;;;;;;29.19;23.45;100709.75;5036117;28;20049;-77
2021/05/21 08:21:08;;;;;;;6.07;1.70;;;;;;;28.74;24.52;100718.81;5035293;28;20099;-77
2021/05/21 08:24:13;;;;;;;6.40;1.60;;;;;;;27.95;25.51;100715.84;5036565;28;20044;-76
2021/05/21 08:27:18;;;;;;;6.28;2.08;;;;;;;27.57;27.08;100703.31;5036344;28;20052;-77
2021/05/21 08:30:24;;;;;;;7.30;2.00;;;;;;;26.42;26.74;100696.16;5035924;28;20108;-75
2021/05/21 08:33:28;;;;;;;6.68;2.40;;;;;;;25.91;29.41;100692.03;5035919;28;20405;-76
2021/05/21 08:36:33;;;;;;;5.70;2.42;;;;;;;25.10;30.83;100690.13;5035437;28;20064;-74
2021/05/21 08:39:39;;;;;;;8.82;2.85;;;;;;;24.82;32.34;100681.38;5015431;28;20065;-77
2021/05/21 08:42:44;;;;;;;8.48;3.13;;;;;;;24.34;33.16;100674.59;5011128;28;20400;-76
2021/05/21 08:45:49;;;;;;;10.23;2.25;;;;;;;23.98;31.47;100664.09;5018747;28;20048;-75
2021/05/21 08:49:01;;;;;;;7.57;2.20;;;;;;;23.74;31.99;100671.13;5035794;28;20413;-79
2021/05/21 08:52:05;;;;;;;10.48;2.55;;;;;;;23.96;30.53;100674.44;5046405;28;20045;-79
2021/05/21 08:55:10;;;;;;;3.92;2.00;;;;;;;23.68;30.90;100687.53;5012708;28;20056;-77
2021/05/21 08:58:14;;;;;;;6.30;2.35;;;;;;;23.68;31.66;100702.09;5034904;28;20063;-79
2021/05/21 09:01:19;;;;;;;5.03;1.85;;;;;;;23.63;29.85;100703.78;5032405;28;20068;-79
2021/05/21 09:04:44;;;;;;;5.10;1.58;;;;;;;23.56;28.96;100716.66;5035923;28;20052;-77
2021/05/21 09:07:48;;;;;;;4.97;1.50;;;;;;;23.53;29.54;100720.66;5035170;28;20053;-79
2021/05/21 09:10:53;;;;;;;5.53;1.80;;;;;;;23.82;29.34;100719.41;5035402;28;20056;-78
2021/05/21 09:14:12;;;;;;;4.68;1.83;;;;;;;23.94;29.20;100714.97;5014422;28;20082;-77
2021/05/21 09:17:24;;;;;;;6.88;2.40;;;;;;;24.12;31.01;100709.69;5012711;28;20053;-78
2021/05/21 09:20:38;;;;;;;9.32;2.10;;;;;;;24.13;30.39;100708.63;5035599;28;20053;-79
2021/05/21 09:24:00;;;;;;;6.22;2.72;;;;;;;24.11;29.43;100698.94;5034894;28;20045;-79
2021/05/21 09:27:07;;;;;;;6.55;2.50;;;;;;;24.29;30.73;100693.63;5035310;28;20064;-77
2021/05/21 09:30:12;;;;;;;7.18;2.00;;;;;;;24.17;28.87;100684.38;5035393;28;20052;-78
2021/05/21 09:33:16;;;;;;;6.70;1.70;;;;;;;24.00;28.87;100685.84;5034853;28;20397;-77
2021/05/21 09:36:32;;;;;;;13.80;2.13;;;;;;;23.93;27.93;100691.31;5034822;28;20048;-78
2021/05/21 09:39:36;;;;;;;3.55;1.20;;;;;;;23.71;28.02;100684.38;5019048;28;20393;-77
2021/05/21 09:42:56;;;;;;;5.82;1.58;;;;;;;23.59;28.97;100681.44;5014609;28;20053;-77
2021/05/21 09:46:09;;;;;;;7.43;2.20;;;;;;;23.45;29.81;100670.69;5015142;28;20048;-78
2021/05/21 09:49:27;;;;;;;5.82;2.15;;;;;;;23.53;30.33;100674.06;5014527;28;20511;-78
2021/05/21 09:52:44;;;;;;;4.53;2.08;;;;;;;23.53;30.25;100673.25;5015195;28;20065;-78
2021/05/21 09:55:54;;;;;;;3.17;1.55;;;;;;;23.66;30.47;100685.03;5017135;28;20056;-77
2021/05/21 09:59:02;;;;;;;5.43;2.17;;;;;;;23.74;30.02;100681.22;5025637;28;20060;-77
2021/05/21 10:02:25;;;;;;;4.53;1.40;;;;;;;23.62;30.40;100680.19;5014625;28;20057;-77
2021/05/21 10:05:37;;;;;;;6.18;1.75;;;;;;;23.60;30.31;100679.56;5023642;28;20053;-80
2021/05/21 10:08:44;;;;;;;5.78;1.45;;;;;;;23.56;29.76;100690.09;5014612;28;20049;-78
2021/05/21 10:11:48;;;;;;;4.55;1.75;;;;;;;23.64;29.74;100684.41;5014789;28;20068;-76
2021/05/21 10:14:54;;;;;;;3.33;1.50;;;;;;;23.60;31.15;100680.38;5020322;28;20058;-80
2021/05/21 10:17:59;;;;;;;6.93;1.65;;;;;;;23.56;30.79;100675.53;5032843;28;20052;-77
2021/05/21 10:21:05;;;;;;;5.35;1.88;;;;;;;23.65;30.29;100679.78;5033246;28;20105;-79
2021/05/21 10:24:10;;;;;;;9.65;2.10;;;;;;;23.57;30.55;100672.59;5019407;28;20507;-77
2021/05/21 10:27:20;;;;;;;6.80;2.03;;;;;;;23.65;30.06;100677.03;5034146;28;20393;-79
2021/05/21 10:30:26;;;;;;;4.03;1.77;;;;;;;23.53;29.72;100660.34;5033176;28;20052;-78
2021/05/21 10:33:32;;;;;;;9.00;1.95;;;;;;;23.41;30.63;100663.94;5024444;28;20056;-78
2021/05/21 10:37:19;;;;;;;9.00;1.80;;;;;;;23.43;31.13;100651.72;5014489;28;20053;-77
2021/05/21 10:40:43;;;;;;;4.65;2.00;;;;;;;23.50;30.83;100632.53;5025529;28;20044;-76
2021/05/21 10:44:21;;;;;;;4.78;2.10;;;;;;;23.55;30.60;100627.28;5033199;28;20040;-77
2021/05/21 10:47:26;;;;;;;3.97;1.60;;;;;;;23.49;30.97;100626.22;5033846;28;20061;-75
2021/05/21 10:50:37;;;;;;;4.75;1.85;;;;;;;23.68;30.44;100628.09;5021269;28;20064;-79
2021/05/21 10:53:46;;;;;;;8.50;1.92;;;;;;;23.77;30.55;100617.75;5032350;28;20404;-75
2021/05/21 10:56:50;;;;;;;5.32;1.70;;;;;;;24.02;30.42;100602.31;5032961;28;20056;-76
2021/05/21 10:59:59;;;;;;;3.00;1.48;;;;;;;23.86;30.92;100591.78;5033455;28;20511;-77
2021/05/21 11:03:05;;;;;;;4.35;1.70;;;;;;;23.83;30.56;100583.97;5033054;28;20448;-78
2021/05/21 11:06:19;;;;;;;6.63;1.65;;;;;;;23.91;30.60;100570.91;5032388;28;20053;-78
2021/05/21 11:09:31;;;;;;;5.90;1.83;;;;;;;23.84;31.40;100571.97;5031074;28;20591;-79
2021/05/21 11:12:51;;;;;;;6.55;2.13;;;;;;;23.63;30.80;100569.47;5032866;28;20052;-78
2021/05/21 11:16:01;;;;;;;4.82;1.70;;;;;;;23.55;31.74;100566.97;5013440;28;20049;-76
2021/05/21 11:19:19;;;;;;;9.13;2.22;;;;;;;23.19;31.46;100562.75;5013877;28;20053;-78
2021/05/21 11:22:27;;;;;;;5.47;2.05;;;;;;;23.30;32.15;100564.03;5027652;28;20393;-77
2021/05/21 11:25:31;;;;;;;5.90;1.90;;;;;;;23.25;32.01;100561.09;5032315;28;20171;-77
2021/05/21 11:28:41;;;;;;;5.85;2.03;;;;;;;23.37;31.56;100562.16;5033025;28;20069;-75
2021/05/21 11:31:45;;;;;;;7.35;1.33;;;;;;;23.53;32.11;100558.94;5032918;28;20052;-74
2021/05/21 11:34:50;;;;;;;3.35;1.23;;;;;;;23.58;31.03;100567.38;5032700;28;20052;-75
2021/05/21 11:37:57;;;;;;;4.28;1.17;;;;;;;23.78;31.34;100553.63;5032889;28;20082;-76
2021/05/21 11:41:01;;;;;;;7.18;1.60;;;;;;;23.95;31.77;100563.91;5020555;28;20440;-76
2021/05/21 11:44:10;;;;;;;6.18;1.40;;;;;;;24.13;31.00;100570.63;5022947;28;20057;-75
2021/05/21 11:47:31;;;;;;;5.00;1.50;;;;;;;24.17;31.52;100585.59;5002979;28;20052;-78
2021/05/21 11:50:36;;;;;;;9.70;1.60;;;;;;;24.48;32.13;100572.78;5018723;28;20541;-74
2021/05/21 11:54:02;;;;;;;7.07;1.30;;;;;;;24.73;27.28;100548.13;5032663;28;20052;-76
2021/05/21 11:57:07;;;;;;;3.35;1.00;;;;;;;24.95;25.89;100545.88;5029476;28;20045;-75
2021/05/21 12:00:12;;;;;;;4.15;1.23;;;;;;;25.33;25.67;100540.28;5032485;28;20068;-74
2021/05/21 12:03:17;;;;;;;2.92;0.80;;;;;;;25.71;25.87;100541.81;5026331;28;20045;-75
2021/05/21 12:06:21;;;;;;;2.63;0.80;;;;;;;25.94;25.29;100543.88;5029506;28;20412;-74
2021/05/21 12:09:26;;;;;;;6.53;1.05;;;;;;;25.90;24.97;100525.31;5001014;28;20057;-77
2021/05/21 12:12:33;;;;;;;3.20;1.00;;;;;;;26.07;25.34;100526.38;5030463;28;20120;-79
2021/05/21 12:15:38;;;;;;;2.28;0.68;;;;;;;25.84;25.13;100519.66;5031302;28;20044;-79
2021/05/21 12:18:42;;;;;;;4.43;0.95;;;;;;;25.81;24.34;100509.13;5045741;28;20057;-78
2021/05/21 12:21:49;;;;;;;4.88;1.05;;;;;;;25.74;24.00;100497.34;5029557;28;20052;-74
2021/05/21 12:24:55;;;;;;;5.00;0.90;;;;;;;25.71;24.27;100499.72;5027503;28;20064;-76
2021/05/21 12:28:01;;;;;;;3.40;0.93;;;;;;;25.68;24.71;100495.50;5026690;28;20353;-79
2021/05/21 12:31:07;;;;;;;2.20;0.68;;;;;;;25.88;25.39;100495.25;5032293;28;20076;-75
2021/05/21 12:34:15;;;;;;;4.28;0.98;;;;;;;25.87;26.10;100496.34;5033223;28;20053;-79
2021/05/21 12:37:24;;;;;;;6.07;1.30;;;;;;;25.38;26.46;100494.53;5031694;28;20053;-79
2021/05/21 12:40:29;;;;;;;3.13;1.20;;;;;;;25.29;26.35;100484.06;5032816;28;20048;-79
2021/05/21 12:43:34;;;;;;;6.32;1.20;;;;;;;25.07;25.45;100480.91;5034730;28;20044;-77
2021/05/21 12:46:50;;;;;;;10.35;1.95;;;;;;;25.49;25.78;100480.09;5058273;28;20053;-79
2021/05/21 12:49:55;;;;;;;5.55;1.00;;;;;;;25.60;25.01;100476.56;5035223;28;20547;-78
2021/05/21 12:53:03;;;;;;;4.13;1.20;;;;;;;25.67;26.16;100474.59;5036224;28;20053;-78
2021/05/21 12:56:08;;;;;;;7.97;0.80;;;;;;;25.92;24.91;100460.75;5036434;28;20068;-78
2021/05/21 12:59:13;;;;;;;4.55;0.90;;;;;;;26.07;24.69;100458.41;5035896;28;20056;-77
2021/05/21 13:02:20;;;;;;;3.38;0.75;;;;;;;25.92;25.08;100463.50;5036189;28;20052;-75
2021/05/21 13:05:27;;;;;;;3.35;0.98;;;;;;;25.58;25.22;100469.59;5026820;28;20504;-75
2021/05/21 13:08:42;;;;;;;4.88;0.63;;;;;;;25.46;23.64;100463.19;5015732;28;20060;-77
2021/05/21 13:12:01;;;;;;;4.50;0.80;;;;;;;25.34;24.41;100459.50;5027503;28;20520;-74
2021/05/21 13:15:10;;;;;;;3.47;0.90;;;;;;;25.71;25.12;100450.22;5015704;28;20057;-74
2021/05/21 13:18:19;;;;;;;7.38;1.15;;;;;;;25.93;23.33;100425.81;5016111;28;20053;-73
2021/05/21 13:21:25;;;;;;;2.72;0.70;;;;;;;25.83;24.04;100429.09;5024105;28;20060;-75
2021/05/21 13:24:32;;;;;;;4.70;0.98;;;;;;;25.51;23.22;100433.13;5035938;28;20491;-76
2021/05/21 13:27:38;;;;;;;2.78;0.80;;;;;;;25.48;24.09;100433.59;5035467;28;20056;-75
2021/05/21 13:30:43;;;;;;;8.73;0.90;;;;;;;25.54;23.97;100458.25;5034628;28;20121;-75
2021/05/21 13:33:48;;;;;;;3.70;0.85;;;;;;;25.38;24.14;100438.75;5023876;28;20053;-77
2021/05/21 13:36:52;;;;;;;8.05;1.27;;;;;;;25.43;23.68;100414.16;5015676;28;20052;-75
2021/05/21 13:39:56;;;;;;;3.47;0.98;;;;;;;25.48;25.03;100426.16;5015134;28;20060;-76
2021/05/21 13:43:01;;;;;;;6.78;0.80;;;;;;;25.09;22.75;100424.69;5015254;28;20053;-77
2021/05/21 13:46:05;;;;;;;5.63;0.90;;;;;;;25.30;22.73;100414.31;5015060;28;20113;-74
2021/05/21 13:49:10;;;;;;;5.18;1.00;;;;;;;25.25;22.40;100420.50;5022869;28;20052;-79
2021/05/21 13:52:15;;;;;;;5.75;0.90;;;;;;;25.01;23.22;100416.72;5031301;28;20504;-76
2021/05/21 13:55:19;;;;;;;2.65;0.60;;;;;;;25.04;24.10;100409.94;5035189;28;20068;-77
2021/05/21 13:58:24;;;;;;;2.30;0.60;;;;;;;24.97;23.01;100407.25;5010062;28;20052;-77
2021/05/21 14:01:28;;;;;;;4.20;0.80;;;;;;;25.01;23.48;100416.72;5014977;28;20065;-76
2021/05/21 14:04:33;;;;;;;4.40;0.80;;;;;;;24.82;21.88;100414.16;5014400;28;20048;-75
2021/05/21 14:07:37;;;;;;;3.65;0.68;;;;;;;25.17;21.71;100421.63;5014827;28;20057;-76
2021/05/21 14:10:42;;;;;;;5.85;0.90;;;;;;;25.23;21.68;100399.81;5014699;28;20056;-76
2021/05/21 14:13:47;;;;;;;4.90;0.90;;;;;;;24.93;21.06;100392.31;5034462;28;20044;-77
2021/05/21 14:16:52;;;;;;;5.22;0.85;;;;;;;25.17;21.64;100410.66;5034483;28;20048;-76
2021/05/21 14:19:57;;;;;;;6.13;1.05;;;;;;;25.18;23.02;100400.50;5022203;28;20064;-77
2021/05/21 14:23:01;;;;;;;3.38;0.80;;;;;;;25.14;23.45;100404.75;5034212;28;20072;-75
2021/05/21 14:26:07;;;;;;;4.03;0.73;;;;;;;24.88;23.54;100400.41;5033183;28;20159;-76
2021/05/21 14:29:12;;;;;;;9.15;1.65;;;;;;;24.57;23.26;100393.03;5033354;28;20060;-74